Aviation Digital Data Service (ADDS)

Output produced by TAFs form (2348 UTC 02 September 2014)
found at http://aviationweather.gov/adds/tafs/
 
KTCC 022325Z 0300/0324 14008KT P6SM SKC 
     FM030400 22012KT P6SM SKC 
     FM031400 22015G25KT P6SM SKC 
     FM032000 19015G22KT P6SM FEW090